createdAt,value
2022-08-01T00:00:42.820Z,17.78
2022-08-01T00:02:44.649Z,17.78
2022-08-01T00:04:48.522Z,17.71
2022-08-01T00:06:50.193Z,17.66
2022-08-01T00:08:51.960Z,17.64
2022-08-01T00:10:59.339Z,17.62
2022-08-01T00:13:04.258Z,17.60
2022-08-01T00:15:08.078Z,17.52
2022-08-01T00:17:09.956Z,17.48
2022-08-01T00:19:11.677Z,17.46
2022-08-01T00:21:13.381Z,17.46
2022-08-01T00:23:15.054Z,17.43
2022-08-01T00:25:16.747Z,17.34
2022-08-01T00:27:18.646Z,17.25
2022-08-01T00:30:11.029Z,17.22
2022-08-01T00:31:42.290Z,17.18
2022-08-01T00:33:43.954Z,17.12
2022-08-01T00:35:45.639Z,17.07
2022-08-01T00:37:47.356Z,17.03
2022-08-01T00:39:48.997Z,17.00
2022-08-01T00:41:50.709Z,16.98
2022-08-01T00:44:06.287Z,16.95
2022-08-01T00:46:07.967Z,16.90
2022-08-01T00:48:09.633Z,16.92
2022-08-01T00:50:11.984Z,16.96
2022-08-01T00:55:30.257Z,16.99
2022-08-01T00:58:01.620Z,17.00
2022-08-01T00:59:53.768Z,17.04
2022-08-01T01:01:56.247Z,17.06
2022-08-01T01:03:59.543Z,17.08
2022-08-01T01:06:39.321Z,17.12
2022-08-01T01:08:46.404Z,17.16
2022-08-01T01:10:57.165Z,17.19
2022-08-01T01:13:04.058Z,17.21
2022-08-01T01:15:08.847Z,17.19
2022-08-01T01:17:10.517Z,17.17
2022-08-01T01:19:14.861Z,17.16
2022-08-01T01:21:19.179Z,17.13
2022-08-01T01:23:48.736Z,17.12
2022-08-01T01:26:30.021Z,17.16
2022-08-01T01:29:09.184Z,17.19
2022-08-01T01:31:11.847Z,17.26
2022-08-01T01:33:14.638Z,17.34
2022-08-01T01:35:21.886Z,17.38
2022-08-01T01:37:26.414Z,17.40
2022-08-01T01:40:21.348Z,17.41
2022-08-01T01:42:25.047Z,17.44
2022-08-01T01:44:28.372Z,17.47
2022-08-01T01:46:31.222Z,17.49
2022-08-01T01:48:34.867Z,17.51
2022-08-01T01:50:37.012Z,17.51
2022-08-01T01:52:40.986Z,17.49
2022-08-01T01:54:50.344Z,17.50
2022-08-01T01:56:52.542Z,17.51
2022-08-01T01:58:56.820Z,17.49
2022-08-01T02:01:00.264Z,17.42
2022-08-01T02:03:06.736Z,17.33
2022-08-01T02:05:10.697Z,17.26
2022-08-01T02:07:15.930Z,17.18
2022-08-01T02:09:23.276Z,17.10
2022-08-01T02:11:25.055Z,17.02
2022-08-01T02:13:27.065Z,16.93
2022-08-01T02:15:29.105Z,16.87
2022-08-01T02:17:31.794Z,16.84
2022-08-01T02:19:38.179Z,16.81
2022-08-01T02:21:46.018Z,16.79
2022-08-01T02:23:48.561Z,16.74
2022-08-01T02:26:08.616Z,16.69
2022-08-01T02:28:29.168Z,16.67
2022-08-01T02:30:36.171Z,16.67
2022-08-01T02:32:45.504Z,16.69
2022-08-01T02:34:48.179Z,16.67
2022-08-01T02:36:50.552Z,16.64
2022-08-01T02:38:53.781Z,16.63
2022-08-01T02:40:58.511Z,16.62
2022-08-01T02:43:01.743Z,16.59
2022-08-01T02:45:05.656Z,16.53
2022-08-01T02:47:07.571Z,16.50
2022-08-01T02:49:11.445Z,16.48
2022-08-01T02:51:14.762Z,16.47
2022-08-01T02:53:20.411Z,16.46
2022-08-01T02:55:23.775Z,16.45
2022-08-01T02:57:29.020Z,16.47
2022-08-01T02:59:47.764Z,16.47
2022-08-01T03:01:50.235Z,16.49
2022-08-01T03:03:52.065Z,16.52
2022-08-01T03:05:54.118Z,16.53
2022-08-01T03:07:56.480Z,16.53
2022-08-01T03:10:05.207Z,16.54
2022-08-01T03:12:12.691Z,16.56
2022-08-01T03:14:16.121Z,16.58
2022-08-01T03:16:17.972Z,16.59
2022-08-01T03:18:19.748Z,16.59
2022-08-01T03:20:25.802Z,16.61
2022-08-01T03:22:29.191Z,16.62
2022-08-01T03:24:32.002Z,16.64
2022-08-01T03:26:36.330Z,16.66
2022-08-01T03:28:38.554Z,16.66
2022-08-01T03:30:41.585Z,16.68
2022-08-01T03:32:43.475Z,16.68
2022-08-01T03:34:45.171Z,16.71
2022-08-01T03:36:54.559Z,16.73
2022-08-01T03:38:58.609Z,16.75
2022-08-01T03:41:05.253Z,16.77
2022-08-01T03:43:12.646Z,16.78
2022-08-01T03:45:26.689Z,16.80
2022-08-01T03:47:32.754Z,16.82
2022-08-01T03:49:36.893Z,16.82
2022-08-01T03:51:39.724Z,16.85
2022-08-01T03:53:42.858Z,16.88
2022-08-01T03:55:44.890Z,16.92
2022-08-01T03:57:46.711Z,16.94
2022-08-01T03:59:49.187Z,16.95
2022-08-01T04:01:51.429Z,16.95
2022-08-01T04:03:53.267Z,16.95
2022-08-01T04:05:54.954Z,16.95
2022-08-01T04:07:56.998Z,16.97
2022-08-01T04:09:58.816Z,16.98
2022-08-01T04:12:01.215Z,16.97
2022-08-01T04:14:11.754Z,16.97
2022-08-01T04:16:13.424Z,16.96
2022-08-01T04:18:15.059Z,16.97
2022-08-01T04:20:16.775Z,16.96
2022-08-01T04:22:19.298Z,16.94
2022-08-01T04:24:22.174Z,16.93
2022-08-01T04:26:24.899Z,16.92
2022-08-01T04:28:26.700Z,16.91
2022-08-01T04:30:30.907Z,16.89
2022-08-01T04:32:34.701Z,16.89
2022-08-01T04:34:37.804Z,16.87
2022-08-01T04:36:42.830Z,16.86
2022-08-01T04:38:47.078Z,16.86
2022-08-01T04:40:49.636Z,16.86
2022-08-01T04:42:51.907Z,16.86
2022-08-01T04:44:53.582Z,16.87
2022-08-01T04:46:58.422Z,16.88
2022-08-01T04:49:01.476Z,16.88
2022-08-01T04:51:03.249Z,16.89
2022-08-01T04:53:05.082Z,16.90
2022-08-01T04:55:07.253Z,16.93
2022-08-01T04:57:08.910Z,16.96
2022-08-01T04:59:29.328Z,16.98
2022-08-01T05:01:31.163Z,16.99
2022-08-01T05:03:37.056Z,17.01
2022-08-01T05:05:40.531Z,17.03
2022-08-01T05:07:45.176Z,17.06
2022-08-01T05:09:47.350Z,17.07
2022-08-01T05:11:49.052Z,17.09
2022-08-01T05:13:50.746Z,17.10
2022-08-01T05:15:53.638Z,17.11
2022-08-01T05:17:55.722Z,17.12
2022-08-01T05:19:57.289Z,17.13
2022-08-01T05:22:01.555Z,17.15
2022-08-01T05:24:03.531Z,17.17
2022-08-01T05:26:05.910Z,17.18
2022-08-01T05:28:07.676Z,17.18
2022-08-01T05:30:11.004Z,17.17
2022-08-01T05:32:12.702Z,17.17
2022-08-01T05:34:15.195Z,17.20
2022-08-01T05:36:17.142Z,17.24
2022-08-01T05:38:18.817Z,17.28
2022-08-01T05:40:20.470Z,17.34
2022-08-01T05:42:22.173Z,17.41
2022-08-01T05:44:23.828Z,17.46
2022-08-01T05:46:26.839Z,17.51
2022-08-01T05:48:29.475Z,17.54
2022-08-01T05:50:31.172Z,17.57
2022-08-01T05:52:32.824Z,17.60
2022-08-01T05:54:34.540Z,17.63
2022-08-01T05:56:36.221Z,17.70
2022-08-01T05:58:37.873Z,17.79
2022-08-01T06:00:40.190Z,17.83
2022-08-01T06:02:44.535Z,17.83
2022-08-01T06:04:46.244Z,17.83
2022-08-01T06:06:48.190Z,17.83
2022-08-01T06:08:49.725Z,17.83
2022-08-01T06:10:53.356Z,17.83
2022-08-01T06:12:55.133Z,17.81
2022-08-01T06:14:56.779Z,17.80
2022-08-01T06:16:59.477Z,17.79
2022-08-01T06:19:01.149Z,17.78
2022-08-01T06:21:02.932Z,17.75
2022-08-01T06:23:14.713Z,17.71
2022-08-01T06:25:26.476Z,17.64
2022-08-01T06:27:28.127Z,17.64
2022-08-01T06:29:32.633Z,17.65
2022-08-01T06:31:34.338Z,17.66
2022-08-01T06:33:36.147Z,17.67
2022-08-01T06:35:37.792Z,17.68
2022-08-01T06:37:43.016Z,17.67
2022-08-01T06:39:44.776Z,17.68
2022-08-01T06:41:47.983Z,17.73
2022-08-01T06:43:49.951Z,17.80
2022-08-01T06:45:51.629Z,17.89
2022-08-01T06:47:53.478Z,17.97
2022-08-01T06:49:55.181Z,18.07
2022-08-01T06:51:58.966Z,18.11
2022-08-01T06:54:00.662Z,18.17
2022-08-01T06:56:03.283Z,18.26
2022-08-01T06:58:04.981Z,18.33
2022-08-01T07:00:11.702Z,18.35
2022-08-01T07:02:13.599Z,18.37
2022-08-01T07:04:15.167Z,18.39
2022-08-01T07:06:20.083Z,18.40
2022-08-01T07:08:22.112Z,18.39
2022-08-01T07:10:24.331Z,18.42
2022-08-01T07:12:26.315Z,18.43
2022-08-01T07:14:27.861Z,18.44
2022-08-01T07:16:30.094Z,18.51
2022-08-01T07:18:32.113Z,18.62
2022-08-01T07:20:37.669Z,18.70
2022-08-01T07:22:43.035Z,18.76
2022-08-01T07:24:45.917Z,18.84
2022-08-01T07:26:53.984Z,18.90
2022-08-01T07:28:56.731Z,18.95
2022-08-01T07:30:58.462Z,18.96
2022-08-01T07:33:00.662Z,18.96
2022-08-01T07:35:05.198Z,18.96
2022-08-01T07:37:06.847Z,18.95
2022-08-01T07:39:08.557Z,18.96
2022-08-01T07:41:10.466Z,18.96
2022-08-01T07:43:12.140Z,18.92
2022-08-01T07:45:15.092Z,18.92
2022-08-01T07:47:18.704Z,18.92
2022-08-01T07:49:20.565Z,18.92
2022-08-01T07:51:22.267Z,18.99
2022-08-01T07:53:24.070Z,19.06
2022-08-01T07:55:28.517Z,19.12
2022-08-01T07:57:30.210Z,19.27
2022-08-01T07:59:31.980Z,19.37
2022-08-01T08:01:33.682Z,19.44
2022-08-01T08:03:35.458Z,19.53
2022-08-01T08:05:58.096Z,19.61
2022-08-01T08:07:58.979Z,19.71
2022-08-01T08:10:00.765Z,19.80
2022-08-01T08:12:03.069Z,19.91
2022-08-01T08:14:04.733Z,20.03
2022-08-01T08:16:06.506Z,20.09
2022-08-01T08:18:08.202Z,20.14
2022-08-01T08:20:10.152Z,20.17
2022-08-01T08:22:11.715Z,20.21
2022-08-01T08:24:26.733Z,20.22
2022-08-01T08:26:29.098Z,20.22
2022-08-01T08:28:30.700Z,20.24
2022-08-01T08:30:32.313Z,20.24
2022-08-01T08:32:35.443Z,20.19
2022-08-01T08:34:37.145Z,20.13
2022-08-01T08:36:39.268Z,20.08
2022-08-01T08:38:49.641Z,19.99
2022-08-01T08:40:51.548Z,19.96
2022-08-01T08:42:53.082Z,19.98
2022-08-01T08:44:57.390Z,19.99
2022-08-01T08:47:02.354Z,19.96
2022-08-01T08:49:04.917Z,19.96
2022-08-01T08:51:14.267Z,19.96
2022-08-01T08:53:18.987Z,20.01
2022-08-01T08:55:20.909Z,20.10
2022-08-01T08:57:22.659Z,20.21
2022-08-01T08:59:27.386Z,20.23
2022-08-01T09:01:30.136Z,20.24
2022-08-01T09:03:31.905Z,20.29
2022-08-01T09:05:38.727Z,20.40
2022-08-01T09:07:40.719Z,20.59
2022-08-01T09:09:42.462Z,20.70
2022-08-01T09:11:44.198Z,20.76
2022-08-01T09:14:26.475Z,20.84
2022-08-01T09:16:28.124Z,20.91
2022-08-01T09:18:41.690Z,20.90
2022-08-01T09:20:43.395Z,20.89
2022-08-01T09:22:47.935Z,20.93
2022-08-01T09:25:06.158Z,21.00
2022-08-01T09:27:21.839Z,21.08
2022-08-01T09:29:38.300Z,21.16
2022-08-01T09:31:47.436Z,21.30
2022-08-01T09:34:05.075Z,21.45
2022-08-01T09:36:07.068Z,21.68
2022-08-01T09:38:17.907Z,21.91
2022-08-01T09:40:19.775Z,22.10
2022-08-01T09:42:29.491Z,22.22
2022-08-01T09:44:55.040Z,22.18
2022-08-01T09:46:57.036Z,22.01
2022-08-01T09:49:07.455Z,21.93
2022-08-01T09:51:12.700Z,21.99
2022-08-01T09:53:51.408Z,22.05
2022-08-01T09:55:55.223Z,22.09
2022-08-01T09:57:57.307Z,22.20
2022-08-01T10:00:01.798Z,22.32
2022-08-01T10:02:03.933Z,22.52
2022-08-01T10:04:06.622Z,22.68
2022-08-01T10:06:29.625Z,22.82
2022-08-01T10:08:46.888Z,22.98
2022-08-01T10:11:12.271Z,23.21
2022-08-01T10:13:14.184Z,23.42
2022-08-01T10:15:18.100Z,23.64
2022-08-01T10:17:20.741Z,23.94
2022-08-01T10:19:28.827Z,24.23
2022-08-01T10:21:57.019Z,24.43
2022-08-01T10:24:02.485Z,24.65
2022-08-01T10:26:06.650Z,24.78
2022-08-01T10:28:24.209Z,24.80
2022-08-01T10:30:26.630Z,24.64
2022-08-01T10:32:29.239Z,24.47
2022-08-01T10:34:31.465Z,24.22
2022-08-01T10:36:34.359Z,24.06
2022-08-01T10:38:42.584Z,24.14
2022-08-01T10:40:46.436Z,24.23
2022-08-01T10:42:48.427Z,24.55
2022-08-01T10:44:50.831Z,25.05
2022-08-01T10:47:01.141Z,25.53
2022-08-01T10:49:07.253Z,25.95
2022-08-01T10:51:18.406Z,26.31
2022-08-01T10:53:31.813Z,26.61
2022-08-01T10:56:02.325Z,26.90
2022-08-01T10:58:09.084Z,27.34
2022-08-01T11:00:22.103Z,27.73
2022-08-01T11:02:32.250Z,28.02
2022-08-01T11:04:41.652Z,28.19
2022-08-01T11:07:06.348Z,28.41
2022-08-01T11:09:16.410Z,28.97
2022-08-01T11:11:18.928Z,29.54
2022-08-01T11:13:59.042Z,29.68
2022-08-01T11:16:32.353Z,29.59
2022-08-01T11:18:37.549Z,29.77
2022-08-01T11:21:56.222Z,29.89
2022-08-01T11:23:20.385Z,29.57
2022-08-01T11:26:06.087Z,29.29
2022-08-01T11:27:46.625Z,28.88
2022-08-01T11:30:13.072Z,28.64
2022-08-01T11:32:26.020Z,28.57
2022-08-01T11:34:56.071Z,28.43
2022-08-01T11:37:30.502Z,28.29
2022-08-01T11:39:36.815Z,28.09
2022-08-01T11:41:41.298Z,27.88
2022-08-01T11:44:11.809Z,27.75
2022-08-01T11:46:13.796Z,27.68
2022-08-01T11:48:20.474Z,27.55
2022-08-01T11:50:36.199Z,27.41
2022-08-01T11:52:41.834Z,27.30
2022-08-01T11:54:51.288Z,27.18
2022-08-01T11:56:56.469Z,27.11
2022-08-01T11:59:01.276Z,27.09
2022-08-01T12:01:03.003Z,27.24
2022-08-01T12:03:07.742Z,27.62
2022-08-01T12:05:14.112Z,28.11
2022-08-01T12:07:17.124Z,28.73
2022-08-01T12:09:22.675Z,29.44
2022-08-01T12:11:24.382Z,30.20
2022-08-01T12:13:44.315Z,30.92
2022-08-01T12:15:47.329Z,31.40
2022-08-01T12:17:58.892Z,31.52
2022-08-01T12:20:02.522Z,31.29
2022-08-01T12:22:14.806Z,31.28
2022-08-01T12:24:23.119Z,31.66
2022-08-01T12:26:40.125Z,32.15
2022-08-01T12:28:41.814Z,32.41
2022-08-01T12:30:43.810Z,32.46
2022-08-01T12:32:47.342Z,32.60
2022-08-01T12:34:49.058Z,32.65
2022-08-01T12:36:50.746Z,32.82
2022-08-01T12:38:55.150Z,32.97
2022-08-01T12:40:56.875Z,33.16
2022-08-01T12:43:01.562Z,33.42
2022-08-01T12:45:03.390Z,33.60
2022-08-01T12:47:06.879Z,33.58
2022-08-01T12:49:10.088Z,33.67
2022-08-01T12:51:12.781Z,33.66
2022-08-01T12:53:16.975Z,33.65
2022-08-01T12:55:23.404Z,33.49
2022-08-01T12:57:25.831Z,33.54
2022-08-01T12:59:29.934Z,33.63
2022-08-01T13:01:31.643Z,33.66
2022-08-01T13:03:33.397Z,33.66
2022-08-01T13:05:49.864Z,33.57
2022-08-01T13:07:51.977Z,33.52
2022-08-01T13:09:53.680Z,33.22
2022-08-01T13:12:04.146Z,33.13
2022-08-01T13:14:06.536Z,33.14
2022-08-01T13:16:15.439Z,33.17
2022-08-01T13:18:33.362Z,33.29
2022-08-01T13:20:36.216Z,33.53
2022-08-01T13:23:21.454Z,33.68
2022-08-01T13:25:54.996Z,33.59
2022-08-01T13:28:15.448Z,33.64
2022-08-01T13:30:19.364Z,33.81
2022-08-01T13:32:29.174Z,33.89
2022-08-01T13:34:34.027Z,33.88
2022-08-01T13:36:36.830Z,33.87
2022-08-01T13:38:58.209Z,33.89
2022-08-01T13:40:59.924Z,33.69
2022-08-01T13:43:01.604Z,33.71
2022-08-01T13:45:14.831Z,33.77
2022-08-01T13:47:17.065Z,33.94
2022-08-01T13:49:19.277Z,34.11
2022-08-01T13:51:22.602Z,34.24
2022-08-01T13:53:24.555Z,34.02
2022-08-01T13:55:27.936Z,33.95
2022-08-01T13:57:37.184Z,34.06
2022-08-01T13:59:39.241Z,34.24
2022-08-01T14:01:41.060Z,34.33
2022-08-01T14:03:42.967Z,34.41
2022-08-01T14:05:45.295Z,34.49
2022-08-01T14:07:48.655Z,34.45
2022-08-01T14:10:18.767Z,34.43
2022-08-01T14:12:12.382Z,34.56
2022-08-01T14:14:14.510Z,34.73
2022-08-01T14:16:16.261Z,34.80
2022-08-01T14:18:19.188Z,34.84
2022-08-01T14:20:21.191Z,34.88
2022-08-01T14:22:22.900Z,34.92
2022-08-01T14:24:25.986Z,35.15
2022-08-01T14:26:29.529Z,35.44
2022-08-01T14:28:31.694Z,35.71
2022-08-01T14:30:34.194Z,35.60
2022-08-01T14:32:36.066Z,35.50
2022-08-01T14:34:37.727Z,35.59
2022-08-01T14:36:39.405Z,35.86
2022-08-01T14:38:46.583Z,36.11
2022-08-01T14:40:52.166Z,36.31
2022-08-01T14:42:53.813Z,36.28
2022-08-01T14:44:55.553Z,36.42
2022-08-01T14:46:58.716Z,36.70
2022-08-01T14:49:00.605Z,36.78
2022-08-01T14:51:05.355Z,36.82
2022-08-01T14:53:07.154Z,36.81
2022-08-01T14:55:10.228Z,36.83
2022-08-01T14:57:12.008Z,37.09
2022-08-01T14:59:21.645Z,37.26
2022-08-01T15:01:23.862Z,37.32
2022-08-01T15:03:25.667Z,37.32
2022-08-01T15:05:27.900Z,37.49
2022-08-01T15:07:29.604Z,37.60
2022-08-01T15:09:31.269Z,37.92
2022-08-01T15:11:34.506Z,38.26
2022-08-01T15:13:42.218Z,38.45
2022-08-01T15:15:44.708Z,38.58
2022-08-01T15:17:46.457Z,38.53
2022-08-01T15:19:50.607Z,38.97
2022-08-01T15:21:52.707Z,39.18
2022-08-01T15:23:55.766Z,39.11
2022-08-01T15:25:57.415Z,38.97
2022-08-01T15:27:59.828Z,38.81
2022-08-01T15:30:01.919Z,38.84
2022-08-01T15:32:05.438Z,38.99
2022-08-01T15:34:07.414Z,38.68
2022-08-01T15:36:09.203Z,38.12
2022-08-01T15:38:14.306Z,37.86
2022-08-01T15:40:15.966Z,38.08
2022-08-01T15:42:20.070Z,38.51
2022-08-01T15:44:27.521Z,38.67
2022-08-01T15:46:29.186Z,38.64
2022-08-01T15:48:30.884Z,38.70
2022-08-01T15:50:32.693Z,38.81
2022-08-01T15:52:34.390Z,39.01
2022-08-01T15:54:36.596Z,39.07
2022-08-01T15:56:38.615Z,39.30
2022-08-01T15:58:40.371Z,39.46
2022-08-01T16:00:42.056Z,39.37
2022-08-01T16:02:43.787Z,39.54
2022-08-01T16:04:45.566Z,39.70
2022-08-01T16:06:47.853Z,39.89
2022-08-01T16:08:49.955Z,40.00
2022-08-01T16:10:51.637Z,40.16
2022-08-01T16:12:53.316Z,40.15
2022-08-01T16:14:54.987Z,40.23
2022-08-01T16:16:56.778Z,40.31
2022-08-01T16:18:58.453Z,40.26
2022-08-01T16:21:00.364Z,40.16
2022-08-01T16:23:04.267Z,40.38
2022-08-01T16:25:06.220Z,40.56
2022-08-01T16:27:08.341Z,40.59
2022-08-01T16:29:10.426Z,40.51
2022-08-01T16:31:21.342Z,40.48
2022-08-01T16:33:49.465Z,40.37
2022-08-01T16:35:56.130Z,40.11
2022-08-01T16:37:57.858Z,40.39
2022-08-01T16:39:59.606Z,40.64
2022-08-01T16:42:02.479Z,40.65
2022-08-01T16:44:04.200Z,40.51
2022-08-01T16:46:08.217Z,40.53
2022-08-01T16:48:15.591Z,40.30
2022-08-01T16:50:17.408Z,39.96
2022-08-01T16:52:19.973Z,39.78
2022-08-01T16:54:25.343Z,39.67
2022-08-01T16:56:28.427Z,39.47
2022-08-01T16:58:32.929Z,39.19
2022-08-01T17:00:35.737Z,39.02
2022-08-01T17:02:39.061Z,38.86
2022-08-01T17:04:40.838Z,38.92
2022-08-01T17:06:42.558Z,38.91
2022-08-01T17:08:47.204Z,38.72
2022-08-01T17:10:49.069Z,38.56
2022-08-01T17:12:50.784Z,38.44
2022-08-01T17:14:52.523Z,38.23
2022-08-01T17:16:54.252Z,38.02
2022-08-01T17:18:55.925Z,37.95
2022-08-01T17:20:57.623Z,38.06
2022-08-01T17:22:59.355Z,38.12
2022-08-01T17:25:02.597Z,38.03
2022-08-01T17:27:08.161Z,37.90
2022-08-01T17:29:12.591Z,37.88
2022-08-01T17:31:14.317Z,37.81
2022-08-01T17:33:16.023Z,37.53
2022-08-01T17:35:17.894Z,37.16
2022-08-01T17:37:19.573Z,36.93
2022-08-01T17:39:23.853Z,36.59
2022-08-01T17:41:40.952Z,36.59
2022-08-01T17:43:43.479Z,36.66
2022-08-01T17:45:51.437Z,36.71
2022-08-01T17:47:53.897Z,36.81
2022-08-01T17:49:56.406Z,36.97
2022-08-01T17:51:58.247Z,36.84
2022-08-01T17:54:02.482Z,36.59
2022-08-01T17:56:05.997Z,36.28
2022-08-01T17:58:13.097Z,35.98
2022-08-01T18:00:15.366Z,35.43
2022-08-01T18:02:17.432Z,34.64
2022-08-01T18:04:19.209Z,33.71
2022-08-01T18:06:23.538Z,32.72
2022-08-01T18:08:27.148Z,31.95
2022-08-01T18:10:29.032Z,31.21
2022-08-01T18:12:30.739Z,30.62
2022-08-01T18:14:39.985Z,30.24
2022-08-01T18:16:42.677Z,29.91
2022-08-01T18:18:44.587Z,29.69
2022-08-01T18:20:49.449Z,29.47
2022-08-01T18:22:52.773Z,29.26
2022-08-01T18:24:54.594Z,29.06
2022-08-01T18:26:58.726Z,28.86
2022-08-01T18:29:00.582Z,28.54
2022-08-01T18:31:02.357Z,28.26
2022-08-01T18:33:06.523Z,28.01
2022-08-01T18:35:09.522Z,27.79
2022-08-01T18:37:16.884Z,27.56
2022-08-01T18:39:21.782Z,27.25
2022-08-01T18:41:27.413Z,26.94
2022-08-01T18:43:29.343Z,26.73
2022-08-01T18:45:31.018Z,26.61
2022-08-01T18:47:32.595Z,26.45
2022-08-01T18:49:34.435Z,26.30
2022-08-01T18:51:42.976Z,26.10
2022-08-01T18:53:47.047Z,25.89
2022-08-01T18:55:48.896Z,25.74
2022-08-01T18:57:50.447Z,25.58
2022-08-01T18:59:52.166Z,25.44
2022-08-01T19:01:53.903Z,25.37
2022-08-01T19:03:55.506Z,25.28
2022-08-01T19:05:57.170Z,25.16
2022-08-01T19:08:06.220Z,25.04
2022-08-01T19:12:38.375Z,24.77
2022-08-01T19:14:40.245Z,24.67
2022-08-01T19:16:42.019Z,24.59
2022-08-01T19:18:43.833Z,24.48
2022-08-01T19:20:48.649Z,24.36
2022-08-01T19:22:50.262Z,24.27
2022-08-01T19:24:51.999Z,24.15
2022-08-01T19:26:58.770Z,24.05
2022-08-01T19:29:16.803Z,23.90
2022-08-01T19:31:22.843Z,23.78
2022-08-01T19:33:24.861Z,23.70
2022-08-01T19:35:27.260Z,23.64
2022-08-01T19:37:30.818Z,23.54
2022-08-01T19:39:32.551Z,23.48
2022-08-01T19:41:34.471Z,23.38
2022-08-01T19:43:41.378Z,23.25
2022-08-01T19:45:45.988Z,23.14
2022-08-01T19:47:51.746Z,23.04
2022-08-01T19:49:59.367Z,22.97
2022-08-01T19:52:02.111Z,22.90
2022-08-01T19:54:06.438Z,22.78
2022-08-01T19:56:09.577Z,22.64
2022-08-01T19:58:28.375Z,22.55
2022-08-01T20:00:30.699Z,22.44
2022-08-01T20:02:34.909Z,22.38
2022-08-01T20:04:36.778Z,22.35
2022-08-01T20:06:38.413Z,22.30
2022-08-01T20:08:40.474Z,22.27
2022-08-01T20:10:42.437Z,22.25
2022-08-01T20:12:44.946Z,22.23
2022-08-01T20:14:49.956Z,22.19
2022-08-01T20:16:53.144Z,22.12
2022-08-01T20:18:56.004Z,22.07
2022-08-01T20:20:58.803Z,22.01
2022-08-01T20:23:01.103Z,21.95
2022-08-01T20:25:03.415Z,21.92
2022-08-01T20:27:05.434Z,21.90
2022-08-01T20:29:07.862Z,21.88
2022-08-01T20:31:10.715Z,21.83
2022-08-01T20:33:12.459Z,21.77
2022-08-01T20:35:15.268Z,21.71
2022-08-01T20:38:03.285Z,21.70
2022-08-01T20:39:45.306Z,21.67
2022-08-01T20:41:59.573Z,21.60
2022-08-01T20:44:03.413Z,21.54
2022-08-01T20:46:06.653Z,21.53
2022-08-01T20:48:08.628Z,21.51
2022-08-01T20:50:54.316Z,21.49
2022-08-01T20:52:51.997Z,21.44
2022-08-01T20:54:55.986Z,21.37
2022-08-01T20:57:00.090Z,21.32
2022-08-01T20:59:09.806Z,21.29
2022-08-01T21:01:15.720Z,21.30
2022-08-01T21:03:23.950Z,21.27
2022-08-01T21:05:31.542Z,21.22
2022-08-01T21:07:38.288Z,21.16
2022-08-01T21:09:42.539Z,21.13
2022-08-01T21:11:58.463Z,21.10
2022-08-01T21:14:05.780Z,21.09
2022-08-01T21:16:24.481Z,21.06
2022-08-01T21:18:36.971Z,21.01
2022-08-01T21:21:02.291Z,20.95
2022-08-01T21:23:18.429Z,20.90
2022-08-01T21:25:24.665Z,20.88
2022-08-01T21:27:33.394Z,20.87
2022-08-01T21:29:36.493Z,20.85
2022-08-01T21:31:40.979Z,20.81
2022-08-01T21:34:02.005Z,20.74
2022-08-01T21:36:06.598Z,20.68
2022-08-01T21:38:08.815Z,20.61
2022-08-01T21:40:11.124Z,20.55
2022-08-01T21:42:18.702Z,20.47
2022-08-01T21:44:28.842Z,20.44
2022-08-01T21:46:31.026Z,20.41
2022-08-01T21:48:38.593Z,20.43
2022-08-01T21:51:19.219Z,20.44
2022-08-01T21:53:43.241Z,20.40
2022-08-01T21:56:15.221Z,20.41
2022-08-01T21:58:26.007Z,20.35
2022-08-01T22:00:28.001Z,20.25
2022-08-01T22:02:39.155Z,20.18
2022-08-01T22:04:45.526Z,20.14
2022-08-01T22:06:49.083Z,20.09
2022-08-01T22:08:53.063Z,20.07
2022-08-01T22:10:59.391Z,20.08
2022-08-01T22:13:01.232Z,20.06
2022-08-01T22:15:05.622Z,20.05
2022-08-01T22:17:08.231Z,19.98
2022-08-01T22:19:10.147Z,19.94
2022-08-01T22:21:31.874Z,19.89
2022-08-01T22:23:37.041Z,19.90
2022-08-01T22:25:39.801Z,19.91
2022-08-01T22:28:08.537Z,19.85
2022-08-01T22:30:07.122Z,19.81
2022-08-01T22:32:09.325Z,19.73
2022-08-01T22:34:12.086Z,19.65
2022-08-01T22:36:14.403Z,19.63
2022-08-01T22:38:20.624Z,19.59
2022-08-01T22:40:22.518Z,19.60
2022-08-01T22:42:28.017Z,19.62
2022-08-01T22:44:35.520Z,19.61
2022-08-01T22:46:59.083Z,19.59
2022-08-01T22:49:24.322Z,19.55
2022-08-01T22:51:31.578Z,19.47
2022-08-01T22:53:48.599Z,19.40
2022-08-01T22:55:59.332Z,19.36
2022-08-01T22:58:04.778Z,19.38
2022-08-01T23:00:09.522Z,19.40
2022-08-01T23:02:16.159Z,19.44
2022-08-01T23:04:24.320Z,19.42
2022-08-01T23:06:47.434Z,19.38
2022-08-01T23:08:49.229Z,19.37
2022-08-01T23:10:52.170Z,19.36
2022-08-01T23:12:55.353Z,19.38
2022-08-01T23:15:01.347Z,19.39
2022-08-01T23:17:03.498Z,19.41
2022-08-01T23:19:25.949Z,19.41
2022-08-01T23:21:28.449Z,19.36
2022-08-01T23:23:31.828Z,19.37
2022-08-01T23:25:34.155Z,19.42
2022-08-01T23:27:57.909Z,19.43
2022-08-01T23:30:01.288Z,19.38
2022-08-01T23:32:03.874Z,19.35
2022-08-01T23:34:05.654Z,19.30
2022-08-01T23:36:07.542Z,19.29
2022-08-01T23:38:15.012Z,19.28
2022-08-01T23:40:17.440Z,19.26
2022-08-01T23:42:19.213Z,19.23
2022-08-01T23:44:20.889Z,19.22
2022-08-01T23:46:22.553Z,19.25
2022-08-01T23:48:24.228Z,19.25
2022-08-01T23:50:28.342Z,19.29
2022-08-01T23:52:32.199Z,19.32
2022-08-01T23:54:34.062Z,19.35
2022-08-01T23:56:35.975Z,19.32
2022-08-01T23:58:37.693Z,19.30
